Time;durP1;ratioP1;P1;durP2;ratioP2;P2;SDS_P1;SDS_P2;PMS_P1;PMS_P2;Temp;Humidity;BMP_temperature;BMP_pressure;BME280_temperature;BME280_humidity;BME280_pressure;Samples;Min_cycle;Max_cycle;Signal;HPM_P1;HPM_P2
2024/03/11 00:00:15;;;;;;;2.78;1.88;;;;;;;6.43;100.00;97192.03;5084672;28;20058;-78
2024/03/11 00:02:42;;;;;;;3.17;2.13;;;;;;;6.43;100.00;97192.03;5089616;28;20025;-79
2024/03/11 00:05:08;;;;;;;2.50;1.80;;;;;;;6.42;100.00;97190.34;5083479;28;20342;-78
2024/03/11 00:07:37;;;;;;;4.50;2.10;;;;;;;6.48;100.00;97194.88;5085680;28;20024;-79
2024/03/11 00:10:05;;;;;;;2.28;1.60;;;;;;;6.45;100.00;97201.50;5063126;28;20261;-78
2024/03/11 00:12:38;;;;;;;5.57;1.90;;;;;;;6.47;100.00;97203.97;5060871;28;20066;-78
2024/03/11 00:15:07;;;;;;;4.55;2.13;;;;;;;6.45;100.00;97206.88;5060676;28;20335;-78
2024/03/11 00:17:32;;;;;;;3.55;2.20;;;;;;;6.50;100.00;97206.25;5083939;28;20232;-79
2024/03/11 00:19:58;;;;;;;4.50;2.47;;;;;;;6.52;100.00;97210.38;5075896;28;20029;-79
2024/03/11 00:22:23;;;;;;;3.60;1.73;;;;;;;6.54;100.00;97215.50;5071636;28;20043;-79
2024/03/11 00:24:48;;;;;;;2.08;1.55;;;;;;;6.50;100.00;97192.81;5066770;28;20228;-79
2024/03/11 00:27:17;;;;;;;4.10;2.00;;;;;;;6.39;100.00;97182.75;5073371;28;20016;-78
2024/03/11 00:29:42;;;;;;;2.70;2.00;;;;;;;6.58;100.00;97211.34;5078702;28;20224;-79
2024/03/11 00:32:09;;;;;;;4.47;2.03;;;;;;;6.54;100.00;97212.81;5066805;28;20096;-78
2024/03/11 00:34:36;;;;;;;3.88;2.30;;;;;;;6.58;100.00;97212.19;5087376;28;20028;-78
2024/03/11 00:37:02;;;;;;;4.30;2.00;;;;;;;6.62;100.00;97206.34;5071280;28;20134;-78
2024/03/11 00:39:27;;;;;;;2.53;1.67;;;;;;;6.47;100.00;97195.91;5069613;28;20016;-78
2024/03/11 00:41:53;;;;;;;2.70;1.70;;;;;;;6.31;100.00;97181.97;5081781;28;20024;-78
2024/03/11 00:44:22;;;;;;;2.13;1.67;;;;;;;6.53;100.00;97217.38;5069603;28;20092;-78
2024/03/11 00:46:51;;;;;;;2.88;1.63;;;;;;;6.54;100.00;97223.56;5073157;28;20096;-78
2024/03/11 00:49:19;;;;;;;4.45;1.67;;;;;;;6.53;100.00;97230.81;5092480;28;20017;-78
2024/03/11 00:51:45;;;;;;;3.33;1.70;;;;;;;6.48;100.00;97229.81;5076793;28;20024;-77
2024/03/11 00:54:11;;;;;;;2.95;1.88;;;;;;;6.54;100.00;97242.38;5077677;28;20020;-78
2024/03/11 00:56:38;;;;;;;3.42;1.88;;;;;;;6.54;100.00;97242.38;5065305;28;20276;-78
2024/03/11 00:59:04;;;;;;;2.08;1.52;;;;;;;6.51;100.00;97251.69;5064119;28;20016;-78
2024/03/11 01:01:30;;;;;;;5.20;2.00;;;;;;;6.52;100.00;97249.81;5080218;28;20019;-78
2024/03/11 01:03:55;;;;;;;2.78;1.60;;;;;;;6.38;100.00;97237.50;5065958;28;20020;-78
2024/03/11 01:06:21;;;;;;;2.50;1.80;;;;;;;6.38;100.00;97240.19;5063230;28;20016;-79
2024/03/11 01:08:46;;;;;;;3.47;2.00;;;;;;;6.41;100.00;97258.56;5073252;28;20021;-78
2024/03/11 01:11:11;;;;;;;3.15;1.80;;;;;;;6.36;100.00;97257.34;5059849;28;20016;-78
2024/03/11 01:13:37;;;;;;;3.42;2.05;;;;;;;6.47;100.00;97273.81;5061618;28;20024;-78
2024/03/11 01:16:02;;;;;;;3.58;2.15;;;;;;;6.39;100.00;97277.56;5066635;28;20086;-78
2024/03/11 01:18:28;;;;;;;3.22;1.90;;;;;;;6.31;100.00;97275.13;5085205;28;20290;-79
2024/03/11 01:20:54;;;;;;;3.35;1.83;;;;;;;6.39;100.00;97285.63;5060728;28;20093;-78
2024/03/11 01:23:20;;;;;;;3.10;2.17;;;;;;;6.31;100.00;97293.94;5044045;28;20020;-79
2024/03/11 01:25:46;;;;;;;3.53;2.20;;;;;;;6.26;100.00;97285.69;5082844;28;20063;-79
2024/03/11 01:28:11;;;;;;;3.05;2.22;;;;;;;6.08;100.00;97272.97;5069489;28;20204;-79
2024/03/11 01:30:37;;;;;;;3.85;2.50;;;;;;;6.19;100.00;97296.47;5063962;28;20017;-79
2024/03/11 01:33:04;;;;;;;4.35;2.60;;;;;;;6.23;100.00;97303.06;5060138;28;20159;-78
2024/03/11 01:35:29;;;;;;;4.00;2.50;;;;;;;6.16;100.00;97286.16;5060938;28;20023;-79
2024/03/11 01:37:56;;;;;;;4.38;2.33;;;;;;;6.18;100.00;97294.00;5063764;28;20040;-79
2024/03/11 01:40:22;;;;;;;4.38;2.67;;;;;;;6.08;100.00;97292.59;5085810;28;20023;-78
2024/03/11 01:42:47;;;;;;;3.92;2.42;;;;;;;6.20;100.00;97313.41;5063640;28;20020;-79
2024/03/11 01:45:13;;;;;;;4.60;2.85;;;;;;;6.13;100.00;97294.63;5066420;28;20228;-79
2024/03/11 01:47:39;;;;;;;4.88;2.92;;;;;;;6.20;100.00;97299.97;5059901;28;20016;-78
2024/03/11 01:50:09;;;;;;;4.43;2.72;;;;;;;6.22;100.00;97309.47;5064766;28;20016;-79
2024/03/11 01:52:37;;;;;;;3.45;2.13;;;;;;;6.25;100.00;97316.28;5085844;28;20024;-79
2024/03/11 01:55:05;;;;;;;3.38;2.33;;;;;;;6.25;100.00;97308.22;5064892;28;20032;-78
2024/03/11 01:57:34;;;;;;;4.75;2.60;;;;;;;6.14;100.00;97298.97;5057669;28;20028;-78
2024/03/11 02:00:01;;;;;;;3.67;2.53;;;;;;;6.23;100.00;97308.44;5056307;28;20261;-78
2024/03/11 02:02:27;;;;;;;5.50;2.97;;;;;;;6.20;100.00;97310.72;5055956;28;20347;-78
2024/03/11 02:04:52;;;;;;;5.30;2.33;;;;;;;6.17;100.00;97301.22;5059778;28;20024;-78
2024/03/11 02:07:19;;;;;;;3.65;2.22;;;;;;;6.07;100.00;97295.47;5069454;28;20020;-79
2024/03/11 02:09:45;;;;;;;5.88;2.38;;;;;;;6.12;100.00;97306.41;5058399;28;20025;-78
2024/03/11 02:12:17;;;;;;;4.28;2.42;;;;;;;6.15;100.00;97308.66;5064285;28;20103;-78
2024/03/11 02:14:43;;;;;;;5.00;2.13;;;;;;;6.16;100.00;97315.72;5081790;28;20239;-79
2024/03/11 02:17:09;;;;;;;4.20;2.00;;;;;;;6.09;100.00;97307.66;5086052;28;20024;-79
2024/03/11 02:19:34;;;;;;;3.97;2.05;;;;;;;6.05;100.00;97302.91;5068649;28;20126;-79
2024/03/11 02:22:02;;;;;;;3.35;2.10;;;;;;;5.96;100.00;97285.41;5050456;28;20095;-79
2024/03/11 02:24:28;;;;;;;3.42;2.00;;;;;;;6.03;100.00;97303.16;5059909;28;20033;-79
2024/03/11 02:26:53;;;;;;;2.97;1.83;;;;;;;6.06;100.00;97310.78;5077817;28;20859;-79
2024/03/11 02:29:18;;;;;;;3.78;2.20;;;;;;;6.00;100.00;97310.78;5082122;28;20024;-79
2024/03/11 02:31:44;;;;;;;4.63;2.60;;;;;;;6.01;100.00;97304.38;5062414;28;20201;-80
2024/03/11 02:34:11;;;;;;;4.07;2.50;;;;;;;5.92;100.00;97299.22;5069148;28;20031;-79
2024/03/11 02:36:37;;;;;;;4.97;2.53;;;;;;;6.01;100.00;97307.91;5064594;28;20051;-79
2024/03/11 02:39:05;;;;;;;3.78;2.80;;;;;;;5.93;100.00;97303.56;5067318;28;20020;-79
2024/03/11 02:41:32;;;;;;;4.20;2.55;;;;;;;5.88;100.00;97292.63;5062638;28;20028;-79
2024/03/11 02:43:58;;;;;;;5.53;3.78;;;;;;;5.95;100.00;97307.91;5067027;28;20020;-79
2024/03/11 02:46:23;;;;;;;5.32;4.30;;;;;;;5.87;100.00;97303.56;5062514;28;20331;-79
2024/03/11 02:48:48;;;;;;;6.15;4.50;;;;;;;5.85;100.00;97314.50;5064359;28;20032;-79
2024/03/11 02:51:13;;;;;;;5.55;4.10;;;;;;;5.78;100.00;97299.44;5064160;28;20312;-79
2024/03/11 02:53:40;;;;;;;5.70;3.72;;;;;;;5.74;100.00;97296.38;5068235;28;20021;-79
2024/03/11 02:56:07;;;;;;;5.35;3.38;;;;;;;5.66;100.00;97315.38;5067030;28;20016;-80
2024/03/11 02:58:34;;;;;;;5.35;3.50;;;;;;;5.64;100.00;97322.81;5063037;28;20095;-79
2024/03/11 03:00:59;;;;;;;5.07;3.58;;;;;;;5.63;100.00;97327.34;5068559;28;20020;-79
2024/03/11 03:03:25;;;;;;;4.57;3.22;;;;;;;5.67;100.00;97333.13;5067792;28;20031;-79
2024/03/11 03:05:50;;;;;;;5.25;3.17;;;;;;;5.66;100.00;97331.47;5063093;28;20029;-80
2024/03/11 03:08:15;;;;;;;6.82;2.88;;;;;;;5.71;100.00;97335.19;5089702;28;20134;-80
2024/03/11 03:10:41;;;;;;;5.32;3.20;;;;;;;5.73;100.00;97345.69;5084061;28;20024;-79
2024/03/11 03:13:06;;;;;;;5.07;2.60;;;;;;;5.68;100.00;97334.75;5070865;28;20032;-79
2024/03/11 03:15:31;;;;;;;6.40;2.63;;;;;;;5.55;100.00;97319.50;5066155;28;20208;-79
2024/03/11 03:17:57;;;;;;;3.67;2.55;;;;;;;5.72;100.00;97347.56;5046997;28;20044;-79
2024/03/11 03:20:22;;;;;;;3.45;2.45;;;;;;;5.73;100.00;97345.69;5067208;28;20027;-79
2024/03/11 03:22:47;;;;;;;3.53;2.38;;;;;;;5.65;100.00;97346.72;5063002;28;20032;-79
2024/03/11 03:25:13;;;;;;;2.85;2.05;;;;;;;5.67;100.00;97344.66;5083547;28;20112;-79
2024/03/11 03:27:38;;;;;;;3.95;2.30;;;;;;;5.72;100.00;97352.09;5066080;28;20120;-80
2024/03/11 03:30:06;;;;;;;3.17;1.92;;;;;;;5.72;100.00;97336.81;5069432;28;20019;-79
2024/03/11 03:32:31;;;;;;;3.97;2.17;;;;;;;5.79;100.00;97352.06;5059156;28;20024;-79
2024/03/11 03:34:56;;;;;;;4.05;2.40;;;;;;;5.78;100.00;97342.38;5087510;28;20092;-79
2024/03/11 03:37:22;;;;;;;4.68;2.42;;;;;;;5.69;100.00;97321.16;5085537;28;20379;-79
2024/03/11 03:39:47;;;;;;;3.67;2.15;;;;;;;5.83;100.00;97335.34;5066913;28;20069;-79
2024/03/11 03:42:12;;;;;;;3.15;2.10;;;;;;;5.85;100.00;97351.25;5062908;28;20037;-79
2024/03/11 03:44:38;;;;;;;2.95;1.90;;;;;;;5.87;100.00;97358.06;5083735;28;20039;-79
2024/03/11 03:47:03;;;;;;;3.53;2.28;;;;;;;5.87;100.00;97363.44;5062226;28;20020;-79
2024/03/11 03:49:30;;;;;;;3.40;1.80;;;;;;;5.86;100.00;97369.81;5060686;28;20055;-79
2024/03/11 03:51:55;;;;;;;3.13;1.83;;;;;;;5.74;100.00;97355.41;5067248;28;20052;-79
2024/03/11 03:54:21;;;;;;;3.22;1.95;;;;;;;5.75;100.00;97356.22;5088683;28;20032;-79
2024/03/11 03:56:47;;;;;;;3.08;2.10;;;;;;;5.61;100.00;97350.06;5061630;28;20031;-79
2024/03/11 03:59:12;;;;;;;3.65;1.90;;;;;;;5.63;100.00;97362.22;5065212;28;20021;-79
2024/03/11 04:01:37;;;;;;;2.72;2.17;;;;;;;5.54;100.00;97359.97;5065016;28;20123;-80
2024/03/11 04:04:03;;;;;;;3.92;2.05;;;;;;;5.49;100.00;97364.06;5084490;28;20020;-79
2024/03/11 04:06:29;;;;;;;4.88;2.28;;;;;;;5.49;100.00;97371.31;5069390;28;20051;-79
2024/03/11 04:08:54;;;;;;;2.75;1.80;;;;;;;5.45;100.00;97362.03;5063284;28;20055;-79
2024/03/11 04:11:20;;;;;;;4.72;1.90;;;;;;;5.27;100.00;97351.91;5041658;28;20029;-78
2024/03/11 04:13:45;;;;;;;3.78;1.98;;;;;;;5.23;100.00;97343.44;5079706;28;20027;-79
2024/03/11 04:16:11;;;;;;;3.47;2.03;;;;;;;5.17;100.00;97354.16;5063712;28;20099;-79
2024/03/11 04:18:37;;;;;;;3.22;1.95;;;;;;;5.25;100.00;97375.41;5077994;28;20067;-79
2024/03/11 04:23:30;;;;;;;3.25;1.67;;;;;;;5.10;100.00;97375.59;5090913;28;20040;-51
2024/03/11 04:25:57;;;;;;;4.57;1.75;;;;;;;5.12;100.00;97383.44;5077511;28;20152;-50
2024/03/11 04:28:23;;;;;;;4.57;1.92;;;;;;;5.07;100.00;97383.22;5092202;28;20028;-50
2024/03/11 04:30:49;;;;;;;5.57;1.85;;;;;;;5.07;100.00;97380.53;5088290;28;20039;-49
2024/03/11 04:33:16;;;;;;;2.17;1.40;;;;;;;5.03;100.00;97380.97;5093506;28;20024;-50
2024/03/11 04:35:43;;;;;;;3.03;1.85;;;;;;;5.02;100.00;97383.81;5092589;28;20077;-50
2024/03/11 04:38:09;;;;;;;2.25;1.75;;;;;;;5.00;100.00;97386.72;5092810;28;20020;-50
2024/03/11 04:40:37;;;;;;;5.50;1.98;;;;;;;4.95;100.00;97385.66;5074258;28;20031;-52
2024/03/11 04:43:03;;;;;;;4.93;1.85;;;;;;;4.87;100.00;97375.94;5074119;28;20028;-51
2024/03/11 04:45:30;;;;;;;3.28;1.98;;;;;;;4.93;100.00;97385.06;5094108;28;20032;-52
2024/03/11 04:47:57;;;;;;;3.40;1.77;;;;;;;4.93;100.00;97385.06;5093579;28;20110;-52
2024/03/11 04:50:26;;;;;;;2.05;1.33;;;;;;;4.91;100.00;97385.25;5089119;28;20024;-50
2024/03/11 04:53:05;;;;;;;3.90;1.63;;;;;;;4.90;100.00;97388.13;5088186;28;20024;-52
2024/03/11 04:55:31;;;;;;;7.18;1.45;;;;;;;4.83;100.00;97386.25;5093422;28;20117;-50
2024/03/11 04:57:58;;;;;;;2.28;1.73;;;;;;;4.75;100.00;97382.94;5090567;28;20020;-50
2024/03/11 05:00:27;;;;;;;2.38;1.50;;;;;;;4.74;100.00;97375.91;5092624;28;20027;-52
2024/03/11 05:02:56;;;;;;;;;;;;;;;4.76;100.00;97390.75;5087913;28;20047;-51
2024/03/11 05:05:22;;;;;;;;;;;;;;;4.70;100.00;97396.94;5068248;28;19922;-51
2024/03/11 05:07:49;;;;;;;2.38;1.40;;;;;;;4.59;100.00;97390.31;5090510;28;19912;-50
2024/03/11 05:10:15;;;;;;;3.25;1.65;;;;;;;4.50;100.00;97390.66;5095207;28;20107;-50
2024/03/11 05:12:40;;;;;;;2.92;1.75;;;;;;;4.37;100.00;97399.47;5091299;28;20106;-50
2024/03/11 05:15:09;;;;;;;3.35;1.77;;;;;;;4.22;100.00;97399.59;5090295;28;20028;-50
2024/03/11 05:17:35;;;;;;;6.47;2.17;;;;;;;4.08;100.00;97403.22;5085717;28;20038;-50
2024/03/11 05:20:06;;;;;;;4.55;2.40;;;;;;;4.01;100.00;97408.53;5094584;28;20032;-50
2024/03/11 05:22:34;;;;;;;4.85;2.80;;;;;;;3.81;100.00;97415.59;5090080;28;20024;-50
2024/03/11 05:25:00;;;;;;;3.45;2.45;;;;;;;3.83;100.00;97422.41;5091855;28;20543;-50
2024/03/11 05:27:25;;;;;;;7.18;2.40;;;;;;;3.88;100.00;97422.66;5094628;28;20027;-50
2024/03/11 05:29:51;;;;;;;5.03;2.15;;;;;;;3.90;100.00;97422.44;5091302;28;20032;-50
2024/03/11 05:32:17;;;;;;;7.63;2.78;;;;;;;3.88;100.00;97427.19;5091028;28;20016;-50
2024/03/11 05:34:43;;;;;;;5.00;2.22;;;;;;;3.84;100.00;97440.09;5095660;28;20069;-50
2024/03/11 05:37:08;;;;;;;4.07;2.83;;;;;;;3.89;100.00;97442.19;5095260;28;20023;-50
2024/03/11 05:39:34;;;;;;;6.15;3.38;;;;;;;3.86;100.00;97438.06;5092135;28;20180;-50
2024/03/11 05:42:00;;;;;;;7.45;4.38;;;;;;;3.80;100.00;97444.19;5091572;28;20032;-50
2024/03/11 05:44:26;;;;;;;8.90;4.50;;;;;;;3.89;100.00;97452.91;5093621;28;20028;-50
2024/03/11 05:46:51;;;;;;;6.85;3.85;;;;;;;3.97;100.00;97455.44;5086834;28;20360;-57
2024/03/11 05:49:16;;;;;;;10.82;4.78;;;;;;;3.99;100.00;97456.06;5089648;28;20379;-60
2024/03/11 05:51:42;;;;;;;14.63;6.60;;;;;;;4.11;100.00;97464.38;5091249;28;20111;-59
2024/03/11 05:54:17;;;;;;;16.05;6.78;;;;;;;4.16;100.00;97469.97;5097542;28;20080;-60
2024/03/11 05:56:53;;;;;;;16.77;7.95;;;;;;;4.23;100.00;97470.03;5072597;28;20444;-59
2024/03/11 05:59:24;;;;;;;14.57;7.22;;;;;;;4.23;100.00;97470.03;5060722;28;20049;-59
2024/03/11 06:01:51;;;;;;;12.85;6.85;;;;;;;4.31;100.00;97464.50;5086133;28;20088;-59
2024/03/11 06:04:17;;;;;;;12.98;6.43;;;;;;;4.37;100.00;97469.88;5088251;28;20020;-59
2024/03/11 06:06:47;;;;;;;10.77;5.88;;;;;;;4.42;100.00;97480.03;5092036;28;20028;-59
2024/03/11 06:09:14;;;;;;;13.13;5.97;;;;;;;4.46;100.00;97483.97;5085484;28;20031;-51
2024/03/11 06:11:41;;;;;;;12.55;6.22;;;;;;;4.48;100.00;97487.28;5091592;28;20027;-51
2024/03/11 06:14:10;;;;;;;11.10;5.60;;;;;;;4.53;100.00;97492.88;5089550;28;20032;-51
2024/03/11 06:16:36;;;;;;;;;;;;;;;4.61;100.00;97484.69;5083743;28;20371;-51
2024/03/11 06:19:01;;;;;;;10.55;5.35;;;;;;;4.88;100.00;97494.72;5088102;28;19931;-51
2024/03/11 06:21:27;;;;;;;8.55;5.50;;;;;;;6.83;100.00;97492.81;5088943;28;20020;-51
2024/03/11 06:23:53;;;;;;;7.38;4.65;;;;;;;9.08;100.00;97451.72;5086074;28;20470;-51
2024/03/11 06:26:18;;;;;;;8.45;3.05;;;;;;;10.89;100.00;97424.25;5096211;28;20051;-51
2024/03/11 06:28:44;;;;;;;6.80;2.47;;;;;;;12.16;100.00;97438.50;5094092;28;20479;-51
2024/03/11 06:31:11;;;;;;;3.60;2.20;;;;;;;12.71;100.00;97434.97;5093885;28;20059;-52
2024/03/11 06:33:36;;;;;;;3.47;1.50;;;;;;;12.97;100.00;97438.00;5095678;28;20036;-52
2024/03/11 06:36:02;;;;;;;2.28;1.60;;;;;;;13.49;100.00;97451.13;5098200;28;20031;-52
2024/03/11 06:38:29;;;;;;;4.93;2.00;;;;;;;15.24;100.00;97445.94;5094678;28;20032;-54
2024/03/11 06:40:54;;;;;;;3.90;1.90;;;;;;;15.03;100.00;97445.03;5095654;28;20059;-54
2024/03/11 06:43:20;;;;;;;5.82;1.77;;;;;;;14.81;100.00;97464.25;5096288;28;20051;-54
2024/03/11 06:45:46;;;;;;;5.57;1.77;;;;;;;16.00;93.76;97457.03;5091585;28;20024;-54
2024/03/11 06:48:12;;;;;;;1.98;1.40;;;;;;;17.18;79.03;97464.28;5096014;28;20455;-52
2024/03/11 06:50:38;;;;;;;4.43;1.42;;;;;;;17.31;77.09;97456.28;5075680;28;20055;-53
2024/03/11 06:53:06;;;;;;;2.13;1.20;;;;;;;16.22;71.92;97466.91;5071685;28;20056;-52
2024/03/11 06:55:32;;;;;;;4.20;1.27;;;;;;;11.51;100.00;97481.25;5093326;28;20421;-52
2024/03/11 06:57:58;;;;;;;6.28;1.38;;;;;;;9.65;100.00;97489.97;5091496;28;20024;-52
2024/03/11 07:00:25;;;;;;;4.25;1.25;;;;;;;8.55;100.00;97497.09;5087273;28;20032;-52
2024/03/11 07:02:51;;;;;;;3.45;1.60;;;;;;;7.82;100.00;97499.56;5088706;28;20031;-52
2024/03/11 07:05:26;;;;;;;3.70;1.85;;;;;;;7.44;100.00;97506.63;5088933;28;20028;-52
2024/03/11 07:07:52;;;;;;;7.43;2.30;;;;;;;7.04;100.00;97508.66;5075964;28;20039;-52
2024/03/11 07:10:18;;;;;;;4.20;2.17;;;;;;;8.33;100.00;97493.97;5094678;28;20059;-52
2024/03/11 07:12:44;;;;;;;1.98;0.77;;;;;;;11.64;100.00;97493.69;5093025;28;20502;-52
2024/03/11 07:15:10;;;;;;;4.20;0.80;;;;;;;14.52;100.00;97493.69;5097640;28;20031;-52
2024/03/11 07:17:36;;;;;;;2.38;0.68;;;;;;;16.48;100.00;97495.00;5094820;28;20028;-52
2024/03/11 07:20:07;;;;;;;0.85;0.60;;;;;;;17.31;89.96;97501.97;5094780;28;20103;-53
2024/03/11 07:22:34;;;;;;;1.17;0.60;;;;;;;18.68;78.98;97496.75;5091917;28;20028;-52
2024/03/11 07:25:00;;;;;;;2.08;0.88;;;;;;;19.64;71.91;97507.78;5087811;28;20100;-53
2024/03/11 07:27:26;;;;;;;1.15;0.55;;;;;;;19.36;70.05;97501.28;5093267;28;20115;-53
2024/03/11 07:29:51;;;;;;;3.58;0.70;;;;;;;17.96;71.14;97507.44;5096690;28;20024;-53
2024/03/11 07:32:18;;;;;;;4.47;0.73;;;;;;;16.55;76.19;97511.09;5085588;28;20088;-53
2024/03/11 07:34:45;;;;;;;3.28;1.02;;;;;;;16.37;80.84;97517.91;5091565;28;20527;-60
2024/03/11 07:37:11;;;;;;;1.58;0.70;;;;;;;17.37;80.99;97516.41;5092378;28;20020;-60
2024/03/11 07:39:37;;;;;;;1.98;0.85;;;;;;;17.70;78.29;97517.66;5092866;28;20124;-61
2024/03/11 07:42:03;;;;;;;1.48;0.90;;;;;;;18.17;74.81;97525.34;5094605;28;20108;-61
2024/03/11 07:44:28;;;;;;;3.05;0.93;;;;;;;18.50;73.59;97522.13;5091486;28;20071;-60
2024/03/11 07:46:54;;;;;;;2.60;1.10;;;;;;;19.09;70.40;97526.53;5074478;28;20059;-61
2024/03/11 07:49:22;;;;;;;1.63;0.77;;;;;;;19.01;70.03;97538.94;5093423;28;20035;-60
2024/03/11 07:51:49;;;;;;;2.58;1.20;;;;;;;20.35;65.18;97533.44;5093839;28;20444;-61
2024/03/11 07:54:14;;;;;;;2.75;0.68;;;;;;;21.23;60.89;97535.59;5085643;28;20054;-61
2024/03/11 07:56:41;;;;;;;1.10;0.70;;;;;;;22.39;58.20;97536.22;5088840;28;20024;-61
2024/03/11 07:59:07;;;;;;;1.65;0.75;;;;;;;20.85;58.93;97545.88;5092246;28;20063;-61
2024/03/11 08:01:33;;;;;;;2.67;0.65;;;;;;;21.48;58.07;97548.06;5092535;28;20028;-61
2024/03/11 08:03:59;;;;;;;1.30;0.70;;;;;;;20.44;57.71;97558.34;5091032;28;20375;-61
2024/03/11 08:06:24;;;;;;;1.05;0.63;;;;;;;20.43;59.41;97547.63;5094848;28;20032;-61
2024/03/11 08:08:52;;;;;;;1.52;0.50;;;;;;;20.55;60.23;97553.53;5084567;28;20028;-62
2024/03/11 08:11:19;;;;;;;1.30;0.77;;;;;;;21.51;58.53;97546.63;5094587;28;20466;-62
2024/03/11 08:13:45;;;;;;;0.60;0.40;;;;;;;21.84;56.28;97548.16;5100010;28;20488;-62
2024/03/11 08:16:11;;;;;;;1.60;0.70;;;;;;;21.52;57.85;97551.84;5102678;28;20038;-61
2024/03/11 08:18:39;;;;;;;2.13;0.60;;;;;;;21.67;56.04;97559.78;5097969;28;20032;-61
2024/03/11 08:21:09;;;;;;;0.80;0.50;;;;;;;21.16;56.92;97557.97;5098398;28;20034;-61
2024/03/11 08:23:35;;;;;;;1.20;0.55;;;;;;;22.16;55.36;97551.06;5097754;28;20023;-61
2024/03/11 08:26:01;;;;;;;2.75;0.63;;;;;;;20.89;56.74;97558.75;5101746;28;20382;-61
2024/03/11 08:28:26;;;;;;;2.28;0.82;;;;;;;22.29;53.92;97550.25;5098628;28;20028;-62
2024/03/11 08:30:58;;;;;;;1.20;0.60;;;;;;;21.84;54.86;97555.59;5100148;28;20173;-61
2024/03/11 08:33:23;;;;;;;3.50;1.10;;;;;;;22.44;54.16;97552.66;5093949;28;20778;-61
2024/03/11 08:35:51;;;;;;;3.28;0.82;;;;;;;23.69;52.78;97568.53;5099878;28;20058;-62
2024/03/11 08:38:17;;;;;;;1.42;0.60;;;;;;;25.55;49.91;97566.00;5102831;28;20020;-61
2024/03/11 08:40:42;;;;;;;3.65;0.85;;;;;;;23.90;49.16;97577.09;5103300;28;20024;-61
2024/03/11 08:43:09;;;;;;;0.47;0.40;;;;;;;22.91;50.11;97575.22;5102539;28;20034;-62
2024/03/11 08:45:35;;;;;;;1.67;0.60;;;;;;;23.41;50.74;97580.56;5098982;28;20463;-62
2024/03/11 08:48:00;;;;;;;1.02;0.50;;;;;;;22.56;51.74;97581.59;5098153;28;20031;-61
2024/03/11 08:50:26;;;;;;;2.80;0.77;;;;;;;21.31;52.49;97592.66;5100345;28;20407;-61
2024/03/11 08:52:51;;;;;;;3.08;0.45;;;;;;;21.28;53.37;97587.75;5098505;28;20035;-62
2024/03/11 08:55:17;;;;;;;1.20;0.50;;;;;;;20.71;53.53;97587.88;5098734;28;20106;-61
2024/03/11 08:57:45;;;;;;;2.90;0.50;;;;;;;21.98;51.64;97578.44;5100792;28;20425;-60
2024/03/11 09:00:12;;;;;;;3.22;0.60;;;;;;;22.12;50.99;97588.63;5101292;28;20468;-61
2024/03/11 09:02:41;;;;;;;0.55;0.35;;;;;;;22.91;49.41;97589.00;5100748;28;20031;-61
2024/03/11 09:05:10;;;;;;;2.85;0.55;;;;;;;22.27;50.93;97582.81;5094813;28;20035;-61
2024/03/11 09:07:35;;;;;;;2.78;0.70;;;;;;;22.78;49.42;97591.84;5095650;28;20023;-61
2024/03/11 09:10:09;;;;;;;2.67;0.60;;;;;;;23.93;49.71;97593.00;5124016;27;20352;-62
2024/03/11 09:12:37;;;;;;;0.60;0.30;;;;;;;21.97;50.63;97598.84;5098665;28;20032;-62
2024/03/11 09:15:04;;;;;;;1.63;0.57;;;;;;;23.03;48.93;97604.19;5098307;28;20318;-62
2024/03/11 09:17:29;;;;;;;1.92;0.40;;;;;;;22.41;49.25;97602.88;5096056;28;20024;-62
2024/03/11 09:19:55;;;;;;;1.17;0.40;;;;;;;23.35;48.40;97608.66;5093871;28;20391;-62
2024/03/11 09:22:21;;;;;;;1.30;0.50;;;;;;;24.37;47.71;97608.56;5097173;28;20067;-62
2024/03/11 09:24:46;;;;;;;1.88;0.50;;;;;;;23.71;47.86;97610.44;5100011;28;20020;-62
2024/03/11 09:27:12;;;;;;;1.05;0.40;;;;;;;23.45;47.77;97613.91;5091833;28;20039;-62
2024/03/11 09:29:38;;;;;;;1.45;0.57;;;;;;;24.54;47.39;97613.31;5095938;28;20024;-62
2024/03/11 09:32:05;;;;;;;1.88;0.77;;;;;;;26.19;44.70;97598.31;5091356;28;20478;-62
2024/03/11 09:34:30;;;;;;;0.63;0.50;;;;;;;24.90;44.98;97617.72;5089036;28;20061;-62
2024/03/11 09:36:56;;;;;;;2.78;0.47;;;;;;;23.70;46.36;97617.09;5081605;28;20200;-62
2024/03/11 09:39:21;;;;;;;0.68;0.50;;;;;;;25.00;45.47;97611.84;5088991;28;20035;-62
2024/03/11 09:41:48;;;;;;;3.97;0.60;;;;;;;24.05;46.67;97627.19;5090632;28;20028;-62
2024/03/11 09:44:20;;;;;;;0.80;0.50;;;;;;;23.03;47.39;97626.28;5086812;28;20028;-62
2024/03/11 09:46:48;;;;;;;3.42;0.60;;;;;;;23.72;47.49;97640.53;5084874;28;20115;-62
2024/03/11 09:49:19;;;;;;;1.27;0.63;;;;;;;24.83;45.45;97639.53;5081902;28;20115;-62
2024/03/11 09:51:46;;;;;;;3.95;0.47;;;;;;;25.06;45.23;97640.97;5097559;28;20028;-62
2024/03/11 09:54:19;;;;;;;1.10;0.40;;;;;;;24.77;44.24;97649.94;5089640;28;20033;-62
2024/03/11 09:56:47;;;;;;;0.52;0.40;;;;;;;24.85;45.07;97654.66;5091010;28;20388;-62
2024/03/11 09:59:18;;;;;;;2.05;0.47;;;;;;;26.14;42.92;97645.63;5080999;28;20017;-63
2024/03/11 10:01:52;;;;;;;1.48;0.50;;;;;;;27.54;41.61;97637.91;5090070;28;20102;-63
2024/03/11 10:04:29;;;;;;;1.42;0.80;;;;;;;22.91;45.68;97646.94;5082996;28;20455;-63
2024/03/11 10:07:00;;;;;;;0.73;0.40;;;;;;;20.82;48.71;97650.97;5088648;28;20032;-63
2024/03/11 10:09:28;;;;;;;1.17;0.57;;;;;;;19.44;52.77;97657.00;5089371;28;20031;-63
2024/03/11 10:12:08;;;;;;;1.70;0.50;;;;;;;16.63;57.62;97647.06;5092226;28;20037;-63
2024/03/11 10:14:34;;;;;;;1.10;0.50;;;;;;;16.07;60.84;97660.59;5082116;28;20047;-62
2024/03/11 10:17:21;;;;;;;1.02;0.50;;;;;;;15.38;65.88;97667.00;5078461;28;20492;-62
2024/03/11 10:19:53;;;;;;;1.42;0.40;;;;;;;16.17;68.17;97658.72;5169624;22;20045;-56
2024/03/11 10:22:28;;;;;;;0.90;0.43;;;;;;;19.47;60.12;97650.94;5051193;28;20473;-62
2024/03/11 10:24:55;;;;;;;0.93;0.40;;;;;;;24.21;50.50;97644.13;5052039;28;20017;-62
2024/03/11 10:27:22;;;;;;;0.95;0.40;;;;;;;27.11;44.09;97637.13;5050827;28;20075;-62
2024/03/11 10:29:54;;;;;;;2.33;0.70;;;;;;;29.34;38.87;97642.41;5053791;28;20049;-62
2024/03/11 10:32:35;;;;;;;1.13;0.28;;;;;;;25.78;41.58;97644.94;5048163;28;20540;-57
2024/03/11 10:35:02;;;;;;;1.77;0.40;;;;;;;22.86;44.92;97651.75;5046531;28;20032;-57
2024/03/11 10:37:29;;;;;;;1.27;0.40;;;;;;;20.14;49.41;97659.25;5050880;28;20028;-57
2024/03/11 10:40:00;;;;;;;0.80;0.40;;;;;;;20.76;49.27;97658.47;5046860;28;20116;-57
2024/03/11 10:42:32;;;;;;;1.90;0.40;;;;;;;25.11;44.84;97651.88;5053977;28;20068;-57
2024/03/11 10:44:59;;;;;;;0.80;0.30;;;;;;;26.07;41.96;97642.56;5053941;28;20032;-62
2024/03/11 10:47:25;;;;;;;1.15;0.40;;;;;;;24.20;43.21;97636.16;5046982;28;20045;-57
2024/03/11 10:49:53;;;;;;;0.47;0.20;;;;;;;24.62;42.94;97645.69;5041559;28;20056;-63
2024/03/11 10:52:25;;;;;;;;;;;;;;;26.34;40.97;97635.75;5040329;28;20111;-61
2024/03/11 10:54:54;;;;;;;0.60;0.28;;;;;;;27.84;38.84;97627.44;5035201;28;19955;-61
2024/03/11 10:57:39;;;;;;;;;;;;;;;28.47;37.39;97635.44;5039681;28;20025;-63
2024/03/11 11:00:18;;;;;;;1.10;0.30;;;;;;;29.95;36.94;97623.72;5051632;28;19928;-58
2024/03/11 11:03:00;;;;;;;0.38;0.20;;;;;;;29.72;36.50;97632.72;5054010;28;20396;-57
2024/03/11 11:05:32;;;;;;;0.57;0.35;;;;;;;27.13;38.72;97617.34;5050136;28;20450;-63
2024/03/11 11:08:02;;;;;;;0.70;0.30;;;;;;;26.16;39.28;97624.72;5045843;28;20480;-63
2024/03/11 11:10:29;;;;;;;1.58;0.38;;;;;;;22.48;42.37;97641.88;5044742;28;20052;-64
2024/03/11 11:12:56;;;;;;;0.50;0.20;;;;;;;21.50;46.17;97636.63;5052040;28;20024;-62
2024/03/11 11:15:23;;;;;;;0.93;0.30;;;;;;;19.86;48.02;97647.25;5047885;28;20477;-62
2024/03/11 11:17:48;;;;;;;0.38;0.20;;;;;;;20.55;48.11;97646.94;5052505;28;20071;-57
2024/03/11 11:20:30;;;;;;;0.88;0.20;;;;;;;23.08;43.84;97637.19;5047400;28;20488;-62
2024/03/11 11:22:59;;;;;;;0.40;0.20;;;;;;;21.69;45.68;97636.56;5051091;28;20124;-61
2024/03/11 11:25:31;;;;;;;0.47;0.20;;;;;;;19.82;48.40;97642.63;5045658;28;20035;-57
2024/03/11 11:27:57;;;;;;;0.50;0.20;;;;;;;19.21;50.50;97638.56;5047032;28;20029;-62
2024/03/11 11:30:28;;;;;;;0.40;0.30;;;;;;;18.84;52.15;97645.44;5050903;28;20041;-60
2024/03/11 11:32:54;;;;;;;1.42;0.20;;;;;;;17.63;55.02;97643.78;5052275;28;20028;-59
2024/03/11 11:35:41;;;;;;;0.95;0.50;;;;;;;17.31;56.63;97647.66;5050873;28;20044;-56